createdAt,value
2023-04-16T00:12:26.218Z,92.5
2023-04-16T00:32:26.216Z,92.6
2023-04-16T00:52:26.215Z,92.4
2023-04-16T01:12:26.217Z,92.2
2023-04-16T01:32:26.223Z,92.1
2023-04-16T01:52:26.232Z,92.0
2023-04-16T02:12:26.224Z,92.0
2023-04-16T02:32:26.219Z,91.9
2023-04-16T02:52:26.225Z,91.8
2023-04-16T03:12:26.211Z,91.7
2023-04-16T03:32:26.213Z,91.7
2023-04-16T03:52:26.212Z,91.9
2023-04-16T04:12:26.216Z,92.2
2023-04-16T04:32:26.205Z,92.3
2023-04-16T04:52:26.209Z,92.5
2023-04-16T05:12:26.206Z,92.5
2023-04-16T05:32:26.207Z,92.7
2023-04-16T05:52:26.192Z,92.6
2023-04-16T06:12:26.201Z,92.5
2023-04-16T06:32:26.186Z,92.5
2023-04-16T06:52:26.187Z,92.3
2023-04-16T07:12:26.181Z,92.0
2023-04-16T07:32:26.112Z,91.9
2023-04-16T07:52:26.080Z,91.6
2023-04-16T08:12:26.089Z,91.3
2023-04-16T08:32:26.097Z,90.6
2023-04-16T08:52:26.084Z,90.0
2023-04-16T09:12:26.092Z,88.8
2023-04-16T09:32:26.098Z,87.2
2023-04-16T09:52:26.103Z,83.7
2023-04-16T10:12:26.124Z,81.4
2023-04-16T10:32:26.029Z,79.6
2023-04-16T10:52:26.038Z,79.1
2023-04-16T11:12:26.044Z,78.9
2023-04-16T11:32:26.077Z,80.6
2023-04-16T11:52:25.965Z,80.6
2023-04-16T12:12:25.968Z,78.0
2023-04-16T12:32:25.986Z,79.0
2023-04-16T12:52:26.020Z,79.7
2023-04-16T13:12:26.072Z,80.6
2023-04-16T13:32:25.913Z,80.3
2023-04-16T13:52:25.931Z,81.6
2023-04-16T14:12:25.944Z,82.7
2023-04-16T14:32:25.934Z,83.0
2023-04-16T14:52:25.937Z,82.7
2023-04-16T15:12:25.932Z,83.0
2023-04-16T15:32:25.859Z,81.9
2023-04-16T15:52:25.959Z,82.2
2023-04-16T16:12:25.893Z,82.8
2023-04-16T16:32:25.888Z,83.5
2023-04-16T16:52:25.800Z,85.0
2023-04-16T17:12:25.815Z,85.5
2023-04-16T17:32:25.818Z,86.2
2023-04-16T17:52:25.828Z,87.0
2023-04-16T18:12:25.827Z,88.0
2023-04-16T18:32:25.833Z,89.0
2023-04-16T18:52:25.839Z,89.6
2023-04-16T19:12:25.739Z,90.2
2023-04-16T19:32:25.776Z,91.0
2023-04-16T19:52:25.746Z,91.1
2023-04-16T20:12:25.757Z,91.5
2023-04-16T20:32:25.748Z,91.2
2023-04-16T20:52:25.806Z,91.3
2023-04-16T21:12:25.750Z,91.5
2023-04-16T21:32:25.762Z,92.2
2023-04-16T21:52:25.759Z,92.6
2023-04-16T22:12:25.794Z,92.7
2023-04-16T22:32:25.764Z,92.7
2023-04-16T22:52:25.778Z,92.5
2023-04-16T23:12:25.779Z,92.3
2023-04-16T23:32:25.772Z,92.3
2023-04-16T23:52:25.769Z,92.7
